createdAt,value
2023-02-16T00:10:44.199Z,36.6
2023-02-16T00:16:55.602Z,36.6
2023-02-16T00:23:04.686Z,36.9
2023-02-16T00:29:02.237Z,37.4
2023-02-16T00:35:20.440Z,38.8
2023-02-16T00:41:17.057Z,38.3
2023-02-16T00:47:14.810Z,38.5
2023-02-16T00:53:07.181Z,38.5
2023-02-16T00:59:23.876Z,37.2
2023-02-16T01:05:27.628Z,38
2023-02-16T01:11:32.492Z,38.2
2023-02-16T01:17:24.937Z,36.6
2023-02-16T01:23:28.880Z,37.3
2023-02-16T01:29:31.791Z,37.7
2023-02-16T01:47:54.290Z,37.6
2023-02-16T01:53:54.645Z,38.8
2023-02-16T01:59:47.786Z,38.5
2023-02-16T02:05:57.616Z,38.4
2023-02-16T02:17:58.322Z,38.4
2023-02-16T02:24:06.775Z,39.8
2023-02-16T02:42:17.868Z,37.9
2023-02-16T02:48:21.610Z,37.4
2023-02-16T02:54:46.129Z,40.7
2023-02-16T03:06:37.236Z,39.2
2023-02-16T03:12:28.930Z,38.4
2023-02-16T03:18:27.172Z,40
2023-02-16T03:24:30.571Z,40.6
2023-02-16T03:30:24.958Z,41.7
2023-02-16T03:36:22.838Z,41.6
2023-02-16T03:42:23.807Z,41.4
2023-02-16T03:48:14.557Z,41.3
2023-02-16T03:54:06.237Z,43
2023-02-16T04:00:01.839Z,43.2
2023-02-16T04:05:54.160Z,41.5
2023-02-16T04:11:57.614Z,41.9
2023-02-16T04:18:01.354Z,41.3
2023-02-16T04:23:56.123Z,41.1
2023-02-16T04:29:48.117Z,42.6
2023-02-16T04:35:53.855Z,42.3
2023-02-16T04:41:59.371Z,43.5
2023-02-16T04:48:00.935Z,44.1
2023-02-16T04:54:10.714Z,44.3
2023-02-16T05:00:03.737Z,42.4
2023-02-16T05:05:55.296Z,43.5
2023-02-16T05:11:47.039Z,43.9
2023-02-16T05:17:59.443Z,43.9
2023-02-16T05:23:57.473Z,44.6
2023-02-16T05:29:47.556Z,45.4
2023-02-16T05:35:38.148Z,45.1
2023-02-16T05:41:30.097Z,44.6
2023-02-16T05:47:19.876Z,44.8
2023-02-16T05:53:10.554Z,45.7
2023-02-16T05:59:02.928Z,48.2
2023-02-16T06:04:54.311Z,48.6
2023-02-16T06:10:44.247Z,47.1
2023-02-16T06:16:33.761Z,47.4
2023-02-16T06:22:22.755Z,46.7
2023-02-16T06:28:12.784Z,46.4
2023-02-16T06:34:06.618Z,45.6
2023-02-16T06:40:12.210Z,47
2023-02-16T06:47:26.713Z,47.6
2023-02-16T06:53:17.595Z,47.5
2023-02-16T06:59:09.539Z,47.5
2023-02-16T07:04:59.928Z,46.9
2023-02-16T07:11:09.273Z,48.1
2023-02-16T07:16:59.736Z,50
2023-02-16T07:22:48.692Z,48.8
2023-02-16T07:28:36.837Z,48.2
2023-02-16T07:34:27.805Z,47.4
2023-02-16T07:40:17.633Z,54.6
2023-02-16T07:46:07.462Z,48.6
2023-02-16T07:51:58.123Z,48.6
2023-02-16T07:57:48.026Z,49.3
2023-02-16T08:03:52.053Z,48
2023-02-16T08:09:55.513Z,47.7
2023-02-16T08:15:45.680Z,46
2023-02-16T08:21:35.591Z,46
2023-02-16T08:27:30.810Z,44.3
2023-02-16T08:33:21.865Z,45.9
2023-02-16T08:39:12.956Z,43.9
2023-02-16T08:45:04.317Z,43.5
2023-02-16T08:50:54.004Z,44.4
2023-02-16T08:56:45.833Z,42.7
2023-02-16T09:02:37.591Z,43
2023-02-16T09:08:31.198Z,40.8
2023-02-16T09:14:22.097Z,39.9
2023-02-16T09:20:11.752Z,40.3
2023-02-16T09:26:04.560Z,39.9
2023-02-16T09:31:56.424Z,41.5
2023-02-16T09:37:46.666Z,39.3
2023-02-16T09:43:39.440Z,38.8
2023-02-16T09:49:41.207Z,40
2023-02-16T09:55:32.722Z,42.7
2023-02-16T10:01:22.386Z,40.3
2023-02-16T10:07:15.976Z,44.9
2023-02-16T10:13:07.656Z,43.3
2023-02-16T10:18:59.649Z,38.4
2023-02-16T10:24:51.370Z,37.6
2023-02-16T10:30:47.124Z,36.9
2023-02-16T10:36:51.065Z,32.7
2023-02-16T10:42:42.301Z,32.5
2023-02-16T10:48:32.437Z,32.6
2023-02-16T10:54:27.742Z,31.7
2023-02-16T11:00:28.483Z,31.1
2023-02-16T11:06:21.669Z,32.2
2023-02-16T11:12:13.238Z,31.3
2023-02-16T11:18:44.741Z,32
2023-02-16T11:24:52.527Z,31.4
2023-02-16T11:30:42.135Z,30.3
2023-02-16T11:36:32.967Z,29.6
2023-02-16T11:42:24.343Z,28.7
2023-02-16T11:48:14.137Z,30.3
2023-02-16T11:54:16.658Z,29.4
2023-02-16T12:00:11.502Z,29
2023-02-16T12:06:01.752Z,29.9
2023-02-16T12:11:59.227Z,30.4
2023-02-16T12:17:49.884Z,29.3
2023-02-16T12:23:45.347Z,32.5
2023-02-16T12:29:36.097Z,32.1
2023-02-16T12:35:30.495Z,31.8
2023-02-16T12:41:23.216Z,30.1
2023-02-16T12:47:14.617Z,30.4
2023-02-16T12:53:03.363Z,30.4
2023-02-16T12:58:52.751Z,30.6
2023-02-16T13:04:57.553Z,31.4
2023-02-16T13:10:47.586Z,30.4
2023-02-16T13:23:07.494Z,30.4
2023-02-16T13:29:05.340Z,30.7
2023-02-16T13:35:40.816Z,29.8
2023-02-16T13:41:48.823Z,30.6
2023-02-16T13:54:01.030Z,30.8
2023-02-16T14:00:04.130Z,31.4
2023-02-16T14:05:52.807Z,30.9
2023-02-16T14:11:51.394Z,30.2
2023-02-16T14:17:47.667Z,30.2
2023-02-16T14:23:49.577Z,29.7
2023-02-16T14:29:56.533Z,28.4
2023-02-16T14:35:59.982Z,29.5
2023-02-16T14:41:49.619Z,29.5
2023-02-16T14:47:51.490Z,27.1
2023-02-16T14:54:16.155Z,26.8
2023-02-16T15:00:14.300Z,26.4
2023-02-16T15:06:18.815Z,26.8
2023-02-16T15:12:23.902Z,26.8
2023-02-16T15:18:13.869Z,26.2
2023-02-16T15:24:16.197Z,24.5
2023-02-16T15:30:08.121Z,25
2023-02-16T15:36:00.783Z,24.2
2023-02-16T15:42:01.642Z,23.5
2023-02-16T15:47:55.537Z,24.8
2023-02-16T15:53:56.882Z,22.9
2023-02-16T15:59:48.183Z,23.6
2023-02-16T16:05:36.896Z,22.8
2023-02-16T16:11:28.331Z,22.4
2023-02-16T16:17:31.747Z,21
2023-02-16T16:23:22.842Z,18.8
2023-02-16T16:29:15.148Z,18
2023-02-16T16:35:10.886Z,17.8
2023-02-16T16:41:03.352Z,17.4
2023-02-16T16:46:52.898Z,17.2
2023-02-16T16:53:05.444Z,16.4
2023-02-16T16:58:53.329Z,16.2
2023-02-16T17:04:42.381Z,16.9
2023-02-16T17:10:31.360Z,16.5
2023-02-16T17:16:21.397Z,16.9
2023-02-16T17:22:13.959Z,17.6
2023-02-16T17:28:04.313Z,18.1
2023-02-16T17:33:57.144Z,15.7
2023-02-16T17:39:47.947Z,15.6
2023-02-16T17:45:41.236Z,15.8
2023-02-16T17:51:31.232Z,14.9
2023-02-16T17:57:22.852Z,14.7
2023-02-16T18:03:15.160Z,15.8
2023-02-16T18:09:07.217Z,19.2
2023-02-16T18:15:00.519Z,20.1
2023-02-16T18:20:58.449Z,20.5
2023-02-16T18:26:48.441Z,19.8
2023-02-16T18:32:39.637Z,19.8
2023-02-16T18:38:30.524Z,19.6
2023-02-16T18:44:30.777Z,19.7
2023-02-16T18:50:22.033Z,18.3
2023-02-16T18:56:12.635Z,18.2
2023-02-16T19:02:02.642Z,16
2023-02-16T19:07:56.580Z,16.4
2023-02-16T19:13:46.529Z,17.2
2023-02-16T19:19:37.208Z,17
2023-02-16T19:25:27.386Z,17.2
2023-02-16T19:31:16.894Z,17
2023-02-16T19:37:08.577Z,16.7
2023-02-16T19:42:58.981Z,16.7
2023-02-16T19:48:48.555Z,16.7
2023-02-16T19:54:38.741Z,17.3
2023-02-16T20:00:29.528Z,16.8
2023-02-16T20:06:18.872Z,17.1
2023-02-16T20:12:09.116Z,17.6
2023-02-16T20:18:02.635Z,18.1
2023-02-16T20:23:55.212Z,17.5
2023-02-16T20:29:47.563Z,17.2
2023-02-16T20:35:37.613Z,18.5
2023-02-16T20:41:28.869Z,19
2023-02-16T20:47:20.718Z,18.4
2023-02-16T20:53:14.166Z,18.5
2023-02-16T20:59:04.555Z,18.5
2023-02-16T21:04:54.978Z,19.5
2023-02-16T21:10:58.331Z,19.3
2023-02-16T21:16:47.465Z,19.2
2023-02-16T21:22:37.089Z,19.1
2023-02-16T21:28:28.409Z,18.9
2023-02-16T21:34:17.961Z,18.6
2023-02-16T21:40:09.560Z,18.8
2023-02-16T21:46:04.546Z,19.7
2023-02-16T21:51:55.951Z,19.2
2023-02-16T21:57:47.828Z,19.5
2023-02-16T22:03:38.399Z,18
2023-02-16T22:09:29.978Z,18.2
2023-02-16T22:15:22.516Z,16.9
2023-02-16T22:21:12.560Z,16.8
2023-02-16T22:27:03.718Z,17.5
2023-02-16T22:33:00.598Z,16.7
2023-02-16T22:38:50.885Z,16.4
2023-02-16T22:44:44.229Z,16
2023-02-16T22:50:34.686Z,16.4
2023-02-16T22:56:23.662Z,17.6
2023-02-16T23:02:33.331Z,16.8
2023-02-16T23:08:44.129Z,16.3
2023-02-16T23:14:51.476Z,15.6
2023-02-16T23:21:13.073Z,15.3
2023-02-16T23:27:07.251Z,16.5
2023-02-16T23:32:59.685Z,17.9
2023-02-16T23:39:10.850Z,17.4
2023-02-16T23:45:49.854Z,22.6
2023-02-16T23:51:43.366Z,17.5
2023-02-16T23:57:34.124Z,16.3
